createdAt,value
2022-12-08T00:01:35.660Z,114.19
2022-12-08T00:05:01.817Z,116.16
2022-12-08T00:08:25.503Z,115.17
2022-12-08T00:11:31.192Z,112.97
2022-12-08T00:14:40.615Z,114.49
2022-12-08T00:17:46.023Z,117.46
2022-12-08T00:20:58.684Z,116.87
2022-12-08T00:24:07.045Z,119.65
2022-12-08T00:27:16.685Z,116.28
2022-12-08T00:30:22.374Z,118.30
2022-12-08T00:33:31.468Z,115.58
2022-12-08T00:36:38.091Z,116.33
2022-12-08T00:39:48.358Z,110.81
2022-12-08T00:42:53.915Z,112.65
2022-12-08T00:46:00.264Z,114.95
2022-12-08T00:49:06.883Z,111.41
2022-12-08T00:52:13.523Z,110.22
2022-12-08T00:55:21.558Z,108.28
2022-12-08T00:58:27.905Z,107.77
2022-12-08T01:01:34.033Z,109.51
2022-12-08T01:04:41.996Z,109.42
2022-12-08T01:07:49.155Z,107.88
2022-12-08T01:10:57.987Z,106.28
2022-12-08T01:14:03.790Z,107.59
2022-12-08T01:17:11.433Z,105.20
2022-12-08T01:20:17.091Z,105.67
2022-12-08T01:23:23.996Z,107.63
2022-12-08T01:26:32.121Z,105.88
2022-12-08T01:29:38.650Z,111.29
2022-12-08T01:32:44.161Z,113.40
2022-12-08T01:35:51.656Z,107.65
2022-12-08T01:39:00.561Z,106.59
2022-12-08T01:42:10.010Z,103.83
2022-12-08T01:45:25.333Z,109.92
2022-12-08T01:48:31.797Z,107.55
2022-12-08T01:51:48.684Z,106.09
2022-12-08T01:55:00.951Z,103.79
2022-12-08T01:58:19.706Z,107.97
2022-12-08T02:01:26.744Z,110.72
2022-12-08T02:04:32.396Z,106.83
2022-12-08T02:07:39.834Z,108.83
2022-12-08T02:10:47.093Z,109.74
2022-12-08T02:13:58.369Z,104.99
2022-12-08T02:17:23.834Z,108.43
2022-12-08T02:20:59.219Z,108.08
2022-12-08T02:24:23.433Z,105.69
2022-12-08T02:27:49.560Z,105.57
2022-12-08T02:31:20.652Z,109.31
2022-12-08T02:34:45.780Z,110.21
2022-12-08T02:38:06.559Z,107.76
2022-12-08T02:41:33.333Z,109.44
2022-12-08T02:44:48.818Z,109.45
2022-12-08T02:47:56.579Z,108.56
2022-12-08T02:51:04.644Z,104.30
2022-12-08T02:54:12.025Z,106.11
2022-12-08T02:57:41.200Z,106.89
2022-12-08T03:01:16.045Z,108.09
2022-12-08T03:04:41.188Z,112.93
2022-12-08T03:08:06.648Z,111.42
2022-12-08T03:11:23.141Z,114.55
2022-12-08T03:14:32.373Z,108.51
2022-12-08T03:17:44.231Z,110.91
2022-12-08T03:20:53.883Z,109.46
2022-12-08T03:24:08.823Z,108.14
2022-12-08T03:27:20.857Z,110.05
2022-12-08T03:30:26.448Z,107.83
2022-12-08T03:33:43.440Z,113.83
2022-12-08T03:36:49.287Z,114.43
2022-12-08T03:39:58.685Z,111.82
2022-12-08T03:43:04.546Z,117.09
2022-12-08T03:46:10.979Z,117.75
2022-12-08T03:49:16.625Z,119.76
2022-12-08T03:52:23.025Z,118.76
2022-12-08T03:55:31.103Z,119.87
2022-12-08T03:58:37.756Z,120.16
2022-12-08T04:01:43.219Z,119.97
2022-12-08T04:04:49.496Z,123.23
2022-12-08T04:08:01.347Z,128.27
2022-12-08T04:11:10.924Z,124.50
2022-12-08T04:14:16.639Z,129.55
2022-12-08T04:17:23.119Z,138.63
2022-12-08T04:20:28.621Z,133.34
2022-12-08T04:23:34.865Z,136.53
2022-12-08T04:26:42.952Z,135.58
2022-12-08T04:29:49.198Z,135.75
2022-12-08T04:32:57.093Z,131.05
2022-12-08T04:36:03.366Z,130.10
2022-12-08T04:39:22.595Z,135.29
2022-12-08T04:42:31.595Z,134.51
2022-12-08T04:45:37.289Z,136.79
2022-12-08T04:48:44.659Z,133.63
2022-12-08T04:51:50.165Z,130.20
2022-12-08T04:54:58.996Z,128.86
2022-12-08T04:58:07.310Z,135.85
2022-12-08T05:01:14.428Z,130.33
2022-12-08T05:04:20.051Z,128.84
2022-12-08T05:07:27.438Z,135.81
2022-12-08T05:10:33.052Z,134.72
2022-12-08T05:13:42.133Z,130.72
2022-12-08T05:16:48.673Z,130.77
2022-12-08T05:19:55.072Z,133.35
2022-12-08T05:23:00.654Z,127.21
2022-12-08T05:26:07.379Z,128.11
2022-12-08T05:29:15.464Z,128.45
2022-12-08T05:32:21.877Z,123.94
2022-12-08T05:35:27.329Z,130.56
2022-12-08T05:38:33.758Z,132.52
2022-12-08T05:41:39.209Z,139.46
2022-12-08T05:44:48.183Z,138.16
2022-12-08T05:47:55.589Z,148.01
2022-12-08T05:51:01.898Z,140.51
2022-12-08T05:54:07.641Z,144.48
2022-12-08T05:57:14.034Z,135.32
2022-12-08T06:00:24.827Z,143.86
2022-12-08T06:03:31.251Z,164.87
2022-12-08T06:06:38.993Z,146.13
2022-12-08T06:09:45.274Z,165.85
2022-12-08T06:12:50.781Z,143.30
2022-12-08T06:15:59.788Z,144.80
2022-12-08T06:19:05.212Z,138.79
2022-12-08T06:22:11.568Z,126.02
2022-12-08T06:25:17.014Z,136.00
2022-12-08T06:28:23.506Z,128.38
2022-12-08T06:31:31.666Z,130.89
2022-12-08T06:34:38.274Z,135.17
2022-12-08T06:37:43.809Z,135.49
2022-12-08T06:40:57.782Z,132.87
2022-12-08T06:44:03.303Z,144.72
2022-12-08T06:47:12.231Z,148.48
2022-12-08T06:50:18.009Z,164.30
2022-12-08T06:53:24.300Z,194.66
2022-12-08T06:56:30.315Z,160.80
2022-12-08T06:59:36.699Z,144.72
2022-12-08T07:02:45.906Z,140.68
2022-12-08T07:05:52.582Z,126.71
2022-12-08T07:08:58.128Z,142.85
2022-12-08T07:12:04.473Z,133.69
2022-12-08T07:15:12.395Z,139.17
2022-12-08T07:18:23.626Z,126.30
2022-12-08T07:21:29.166Z,119.15
2022-12-08T07:24:35.498Z,137.82
2022-12-08T07:27:40.974Z,123.45
2022-12-08T07:30:47.339Z,135.83
2022-12-08T07:33:57.167Z,194.08
2022-12-08T07:37:03.608Z,165.16
2022-12-08T07:40:12.856Z,204.20
2022-12-08T07:43:19.264Z,178.84
2022-12-08T07:46:27.495Z,200.33
2022-12-08T07:49:36.734Z,213.93
2022-12-08T07:52:42.219Z,164.18
2022-12-08T07:55:48.448Z,191.23
2022-12-08T07:58:54.137Z,210.89
2022-12-08T08:02:22.769Z,177.83
2022-12-08T08:05:28.673Z,192.76
2022-12-08T08:08:36.314Z,159.18
2022-12-08T08:11:41.791Z,176.97
2022-12-08T08:14:48.105Z,210.97
2022-12-08T08:17:54.287Z,183.83
2022-12-08T08:21:22.256Z,183.20
2022-12-08T08:24:28.766Z,153.80
2022-12-08T08:27:35.148Z,179.31
2022-12-08T08:30:40.750Z,176.36
2022-12-08T08:33:48.852Z,185.29
2022-12-08T08:36:57.016Z,183.06
2022-12-08T08:40:03.936Z,165.29
2022-12-08T08:43:34.299Z,168.72
2022-12-08T08:46:44.387Z,183.93
2022-12-08T08:49:49.994Z,171.39
2022-12-08T08:52:59.163Z,143.02
2022-12-08T08:56:05.256Z,154.26
2022-12-08T08:59:12.604Z,148.10
2022-12-08T09:02:22.145Z,151.19
2022-12-08T09:05:28.452Z,155.99
2022-12-08T09:08:36.482Z,160.35
2022-12-08T09:11:42.962Z,143.97
2022-12-08T09:14:48.651Z,141.87
2022-12-08T09:17:55.023Z,138.54
2022-12-08T09:21:06.411Z,132.88
2022-12-08T09:24:16.045Z,144.30
2022-12-08T09:27:21.853Z,150.55
2022-12-08T09:30:28.419Z,143.01
2022-12-08T09:33:34.211Z,140.09
2022-12-08T09:36:40.526Z,155.06
2022-12-08T09:39:49.483Z,149.85
2022-12-08T09:43:09.297Z,146.44
2022-12-08T09:46:21.099Z,144.24
2022-12-08T09:49:46.001Z,151.99
2022-12-08T09:53:05.036Z,164.64
2022-12-08T09:56:22.603Z,158.53
2022-12-08T09:59:34.893Z,137.95
2022-12-08T10:02:41.167Z,125.67
2022-12-08T10:05:58.890Z,119.41
2022-12-08T10:09:31.635Z,121.06
2022-12-08T10:12:54.033Z,208.81
2022-12-08T10:16:25.391Z,410.46
2022-12-08T10:19:38.114Z,355.07
2022-12-08T10:22:45.265Z,206.55
2022-12-08T10:25:56.941Z,151.48
2022-12-08T10:29:07.739Z,159.70
2022-12-08T10:32:22.947Z,139.74
2022-12-08T10:35:48.843Z,227.05
2022-12-08T10:38:54.414Z,183.11
2022-12-08T10:42:10.523Z,237.07
2022-12-08T10:45:29.547Z,155.71
2022-12-08T10:48:37.036Z,149.09
2022-12-08T10:51:45.296Z,147.44
2022-12-08T10:54:56.726Z,134.17
2022-12-08T10:58:02.290Z,136.57
2022-12-08T11:01:17.813Z,130.98
2022-12-08T11:04:38.375Z,126.72
2022-12-08T11:07:51.082Z,247.43
2022-12-08T11:10:56.988Z,209.84
2022-12-08T11:14:12.027Z,196.08
2022-12-08T11:17:29.790Z,235.99
2022-12-08T11:20:43.909Z,180.14
2022-12-08T11:23:53.316Z,186.87
2022-12-08T11:27:06.573Z,179.45
2022-12-08T11:30:21.484Z,230.07
2022-12-08T11:33:32.592Z,207.54
2022-12-08T11:36:41.109Z,167.85
2022-12-08T11:39:54.486Z,196.02
2022-12-08T11:43:17.511Z,159.82
2022-12-08T11:46:30.214Z,169.65
2022-12-08T11:49:44.373Z,197.81
2022-12-08T11:52:54.689Z,133.61
2022-12-08T11:56:09.588Z,291.17
2022-12-08T11:59:31.775Z,125.65
2022-12-08T12:02:49.165Z,147.34
2022-12-08T12:10:29.117Z,147.92
2022-12-08T12:14:05.432Z,179.35
2022-12-08T12:17:39.315Z,135.38
2022-12-08T12:21:00.078Z,281.31
2022-12-08T12:24:26.748Z,153.86
2022-12-08T12:27:43.830Z,139.71
2022-12-08T12:31:02.082Z,139.84
2022-12-08T12:34:19.312Z,139.33
2022-12-08T12:37:30.517Z,139.42
2022-12-08T12:40:45.457Z,425.81
2022-12-08T12:44:28.277Z,255.82
2022-12-08T12:47:56.688Z,476.35
2022-12-08T12:51:02.729Z,155.68
2022-12-08T12:54:25.960Z,253.24
2022-12-08T12:57:42.370Z,158.82
2022-12-08T13:00:49.920Z,140.60
2022-12-08T13:04:10.817Z,273.35
2022-12-08T13:07:25.641Z,387.09
2022-12-08T13:10:37.424Z,171.01
2022-12-08T13:14:03.371Z,277.70
2022-12-08T13:17:19.473Z,570.18
2022-12-08T13:20:29.118Z,412.05
2022-12-08T13:24:17.808Z,510.84
2022-12-08T13:27:37.882Z,214.39
2022-12-08T13:30:50.883Z,190.94
2022-12-08T13:38:48.896Z,324.08
2022-12-08T13:42:06.699Z,198.84
2022-12-08T13:45:59.210Z,171.52
2022-12-08T13:59:48.585Z,242.18
2022-12-08T14:03:02.430Z,196.74
2022-12-08T14:06:17.724Z,420.08
2022-12-08T14:09:28.214Z,283.87
2022-12-08T14:12:35.114Z,267.62
2022-12-08T14:15:43.240Z,1043.97
2022-12-08T14:18:48.827Z,355.09
2022-12-08T14:22:01.962Z,259.30
2022-12-08T14:25:10.803Z,242.98
2022-12-08T14:28:17.179Z,244.79
2022-12-08T14:31:26.618Z,249.79
2022-12-08T14:34:39.786Z,274.85
2022-12-08T14:37:52.104Z,343.96
2022-12-08T14:41:08.879Z,569.56
2022-12-08T14:44:27.340Z,426.29
2022-12-08T14:47:36.359Z,414.03
2022-12-08T14:51:02.581Z,353.68
2022-12-08T14:54:18.148Z,381.05
2022-12-08T14:57:24.335Z,339.13
2022-12-08T15:00:32.028Z,295.00
2022-12-08T15:03:40.050Z,316.43
2022-12-08T15:06:56.407Z,344.85
2022-12-08T15:10:32.037Z,400.35
2022-12-08T15:13:38.345Z,303.25
2022-12-08T15:16:47.221Z,289.94
2022-12-08T15:19:59.291Z,283.75
2022-12-08T15:23:06.927Z,317.74
2022-12-08T15:26:25.268Z,267.47
2022-12-08T15:29:33.094Z,256.18
2022-12-08T15:32:39.400Z,253.54
2022-12-08T15:35:45.035Z,362.29
2022-12-08T15:38:51.435Z,302.49
2022-12-08T15:41:59.603Z,297.61
2022-12-08T15:45:06.571Z,357.13
2022-12-08T15:48:21.639Z,311.79
2022-12-08T15:51:27.932Z,313.66
2022-12-08T15:54:33.497Z,377.24
2022-12-08T15:58:31.216Z,492.15
2022-12-08T16:01:08.505Z,362.52
2022-12-08T16:05:06.385Z,309.73
2022-12-08T16:07:45.841Z,339.37
2022-12-08T16:11:34.475Z,326.88
2022-12-08T16:15:23.014Z,280.60
2022-12-08T16:17:45.909Z,569.52
2022-12-08T16:21:09.727Z,860.62
2022-12-08T16:24:18.583Z,833.66
2022-12-08T16:30:59.716Z,463.23
2022-12-08T16:34:05.447Z,553.48
2022-12-08T16:37:18.354Z,409.85
2022-12-08T16:40:24.221Z,416.14
2022-12-08T16:43:27.914Z,336.84
2022-12-08T16:46:37.654Z,305.58
2022-12-08T16:49:43.945Z,291.67
2022-12-08T16:52:53.048Z,321.58
2022-12-08T16:55:59.527Z,305.72
2022-12-08T16:59:05.594Z,340.44
2022-12-08T17:02:16.540Z,359.01
2022-12-08T17:05:25.140Z,392.93
2022-12-08T17:08:31.562Z,396.42
2022-12-08T17:11:42.973Z,344.28
2022-12-08T17:14:50.168Z,345.02
2022-12-08T17:17:59.708Z,421.87
2022-12-08T17:21:06.255Z,505.41
2022-12-08T17:24:14.604Z,492.99
2022-12-08T17:27:22.405Z,492.95
2022-12-08T17:30:27.938Z,517.07
2022-12-08T17:33:37.027Z,583.52
2022-12-08T17:36:43.048Z,635.07
2022-12-08T17:39:49.608Z,667.40
2022-12-08T17:42:55.114Z,548.65
2022-12-08T17:46:07.283Z,462.46
2022-12-08T17:49:21.832Z,453.76
2022-12-08T17:52:28.169Z,465.84
2022-12-08T17:55:33.643Z,362.95
2022-12-08T17:58:40.164Z,355.24
2022-12-08T18:01:46.235Z,349.19
2022-12-08T18:04:55.052Z,360.68
2022-12-08T18:08:01.453Z,415.03
2022-12-08T18:11:13.983Z,491.94
2022-12-08T18:14:20.155Z,434.19
2022-12-08T18:17:26.619Z,492.71
2022-12-08T18:20:35.018Z,506.10
2022-12-08T18:23:44.842Z,524.69
2022-12-08T18:26:52.427Z,536.10
2022-12-08T18:29:58.827Z,472.29
2022-12-08T18:33:07.237Z,446.51
2022-12-08T18:36:20.972Z,435.09
2022-12-08T18:39:30.226Z,434.81
2022-12-08T18:42:36.488Z,440.94
2022-12-08T18:45:42.560Z,491.00
2022-12-08T18:48:53.159Z,497.05
2022-12-08T18:52:01.124Z,448.86
2022-12-08T18:55:08.863Z,416.63
2022-12-08T18:58:14.541Z,399.92
2022-12-08T19:01:21.777Z,374.32
2022-12-08T19:04:29.661Z,364.17
2022-12-08T19:07:39.921Z,372.57
2022-12-08T19:10:45.671Z,378.56
2022-12-08T19:13:52.743Z,393.43
2022-12-08T19:16:58.540Z,466.54
2022-12-08T19:20:05.294Z,434.28
2022-12-08T19:23:15.309Z,445.84
2022-12-08T19:26:22.673Z,432.78
2022-12-08T19:29:28.139Z,439.84
2022-12-08T19:32:34.836Z,404.96
2022-12-08T19:35:40.429Z,393.72
2022-12-08T19:39:02.922Z,376.48
2022-12-08T19:42:30.341Z,414.39
2022-12-08T19:45:39.265Z,530.93
2022-12-08T19:48:44.739Z,717.44
2022-12-08T19:51:53.482Z,687.50
2022-12-08T19:55:01.604Z,761.07
2022-12-08T19:58:10.055Z,727.26
2022-12-08T20:01:17.129Z,748.94
2022-12-08T20:04:24.178Z,612.11
2022-12-08T20:07:29.702Z,592.39
2022-12-08T20:10:45.567Z,626.18
2022-12-08T20:13:51.246Z,749.07
2022-12-08T20:16:57.787Z,781.04
2022-12-08T20:20:07.071Z,831.21
2022-12-08T20:23:16.370Z,849.34
2022-12-08T20:26:26.089Z,952.98
2022-12-08T20:29:32.400Z,894.63
2022-12-08T20:32:38.094Z,883.65
2022-12-08T20:35:45.902Z,853.71
2022-12-08T20:38:54.605Z,828.96
2022-12-08T20:42:04.787Z,885.94
2022-12-08T20:45:11.787Z,796.38
2022-12-08T20:48:19.627Z,801.77
2022-12-08T20:51:31.418Z,852.13
2022-12-08T20:54:40.045Z,842.19
2022-12-08T20:57:48.291Z,756.28
2022-12-08T21:00:56.056Z,701.63
2022-12-08T21:04:02.120Z,722.84
2022-12-08T21:07:09.241Z,745.58
2022-12-08T21:10:14.996Z,708.26
2022-12-08T21:13:24.180Z,672.52
2022-12-08T21:16:29.856Z,772.90
2022-12-08T21:19:38.836Z,751.49
2022-12-08T21:22:44.699Z,668.94
2022-12-08T21:25:51.195Z,755.56
2022-12-08T21:29:01.189Z,838.84
2022-12-08T21:32:08.012Z,831.71
2022-12-08T21:35:14.586Z,852.62
2022-12-08T21:38:21.251Z,827.39
2022-12-08T21:41:39.866Z,983.44
2022-12-08T21:44:48.975Z,1126.64
2022-12-08T21:47:54.948Z,1208.87
2022-12-08T21:51:07.328Z,1238.81
2022-12-08T21:54:18.590Z,1425.48
2022-12-08T21:57:26.014Z,1246.14
2022-12-08T22:00:34.624Z,1124.40
2022-12-08T22:03:43.044Z,1021.46
2022-12-08T22:06:49.077Z,987.55
2022-12-08T22:09:55.801Z,1043.32
2022-12-08T22:13:01.750Z,1052.97
2022-12-08T22:16:16.971Z,1113.68
2022-12-08T22:19:24.763Z,1140.93
2022-12-08T22:22:31.379Z,1158.06
2022-12-08T22:25:36.989Z,1072.40
2022-12-08T22:28:45.690Z,1082.58
2022-12-08T22:31:54.076Z,1075.12
2022-12-08T22:35:00.799Z,1145.12
2022-12-08T22:38:06.362Z,1161.34
2022-12-08T22:41:13.474Z,1201.20
2022-12-08T22:44:19.035Z,1203.30
2022-12-08T22:47:28.086Z,962.37
2022-12-08T22:50:33.583Z,1054.75
2022-12-08T22:53:40.703Z,978.03
2022-12-08T22:56:46.314Z,1038.16
2022-12-08T22:59:52.727Z,992.30
2022-12-08T23:03:00.878Z,946.10
2022-12-08T23:06:15.725Z,894.40
2022-12-08T23:09:21.399Z,828.86
2022-12-08T23:12:27.821Z,615.42
2022-12-08T23:15:33.539Z,494.21
2022-12-08T23:18:45.917Z,424.62
2022-12-08T23:21:51.673Z,373.58
2022-12-08T23:24:58.219Z,325.54
2022-12-08T23:28:03.832Z,302.10
2022-12-08T23:31:11.139Z,291.30
2022-12-08T23:34:19.498Z,289.17
2022-12-08T23:37:25.951Z,294.91
2022-12-08T23:40:31.492Z,272.66
2022-12-08T23:43:38.736Z,278.63
2022-12-08T23:46:44.373Z,272.16
2022-12-08T23:49:53.465Z,264.14
2022-12-08T23:52:58.977Z,231.46
2022-12-08T23:56:09.595Z,213.18
2022-12-08T23:59:15.420Z,205.37
